sensor_id;sensor_type;location;lat;lon;timestamp;temperature;humidity
62589;DHT22;58504;48.770;9.148;2023-08-08T00:00:30;22.70;57.40
62589;DHT22;58504;48.770;9.148;2023-08-08T00:02:56;22.70;57.40
62589;DHT22;58504;48.770;9.148;2023-08-08T00:05:23;22.70;57.50
62589;DHT22;58504;48.770;9.148;2023-08-08T00:07:50;22.70;57.50
62589;DHT22;58504;48.770;9.148;2023-08-08T00:10:17;22.60;57.50
62589;DHT22;58504;48.770;9.148;2023-08-08T00:12:45;22.60;57.60
62589;DHT22;58504;48.770;9.148;2023-08-08T00:15:12;22.60;57.70
62589;DHT22;58504;48.770;9.148;2023-08-08T00:17:39;22.60;57.70
62589;DHT22;58504;48.770;9.148;2023-08-08T00:20:06;22.50;57.70
62589;DHT22;58504;48.770;9.148;2023-08-08T00:22:33;22.50;57.80
62589;DHT22;58504;48.770;9.148;2023-08-08T00:25:00;22.50;57.80
62589;DHT22;58504;48.770;9.148;2023-08-08T00:27:27;22.50;57.90
62589;DHT22;58504;48.770;9.148;2023-08-08T00:29:55;22.50;57.90
62589;DHT22;58504;48.770;9.148;2023-08-08T00:32:22;22.50;58.00
62589;DHT22;58504;48.770;9.148;2023-08-08T00:34:49;22.40;57.90
62589;DHT22;58504;48.770;9.148;2023-08-08T00:37:15;22.40;58.00
62589;DHT22;58504;48.770;9.148;2023-08-08T00:39:42;22.40;58.10
62589;DHT22;58504;48.770;9.148;2023-08-08T00:42:11;22.40;58.00
62589;DHT22;58504;48.770;9.148;2023-08-08T00:44:38;22.40;58.10
62589;DHT22;58504;48.770;9.148;2023-08-08T00:47:08;22.40;58.20
62589;DHT22;58504;48.770;9.148;2023-08-08T00:49:35;22.40;58.30
62589;DHT22;58504;48.770;9.148;2023-08-08T00:52:04;22.40;58.30
62589;DHT22;58504;48.770;9.148;2023-08-08T00:54:32;22.40;58.30
62589;DHT22;58504;48.770;9.148;2023-08-08T00:56:59;22.40;58.30
62589;DHT22;58504;48.770;9.148;2023-08-08T00:59:27;22.30;58.20
62589;DHT22;58504;48.770;9.148;2023-08-08T01:01:54;22.30;58.30
62589;DHT22;58504;48.770;9.148;2023-08-08T01:04:24;22.30;58.30
62589;DHT22;58504;48.770;9.148;2023-08-08T01:06:57;22.40;58.40
62589;DHT22;58504;48.770;9.148;2023-08-08T01:09:30;22.30;58.40
62589;DHT22;58504;48.770;9.148;2023-08-08T01:11:59;22.30;58.40
62589;DHT22;58504;48.770;9.148;2023-08-08T01:14:28;22.30;58.40
62589;DHT22;58504;48.770;9.148;2023-08-08T01:16:56;22.30;58.50
62589;DHT22;58504;48.770;9.148;2023-08-08T01:19:26;22.30;58.40
62589;DHT22;58504;48.770;9.148;2023-08-08T01:21:54;22.30;58.50
62589;DHT22;58504;48.770;9.148;2023-08-08T01:24:25;22.30;58.40
62589;DHT22;58504;48.770;9.148;2023-08-08T01:26:54;22.30;58.50
62589;DHT22;58504;48.770;9.148;2023-08-08T01:29:22;22.30;58.50
62589;DHT22;58504;48.770;9.148;2023-08-08T01:31:48;22.20;58.50
62589;DHT22;58504;48.770;9.148;2023-08-08T01:34:15;22.20;58.40
62589;DHT22;58504;48.770;9.148;2023-08-08T01:36:46;22.20;58.40
62589;DHT22;58504;48.770;9.148;2023-08-08T01:39:16;22.20;58.50
62589;DHT22;58504;48.770;9.148;2023-08-08T01:41:47;22.20;58.50
62589;DHT22;58504;48.770;9.148;2023-08-08T01:44:15;22.20;58.50
62589;DHT22;58504;48.770;9.148;2023-08-08T01:46:43;22.20;58.50
62589;DHT22;58504;48.770;9.148;2023-08-08T01:49:10;22.20;58.50
62589;DHT22;58504;48.770;9.148;2023-08-08T01:51:37;22.20;58.50
62589;DHT22;58504;48.770;9.148;2023-08-08T01:54:03;22.20;58.50
62589;DHT22;58504;48.770;9.148;2023-08-08T01:56:30;22.20;58.60
62589;DHT22;58504;48.770;9.148;2023-08-08T01:58:58;22.20;58.60
62589;DHT22;58504;48.770;9.148;2023-08-08T02:01:25;22.20;58.60
62589;DHT22;58504;48.770;9.148;2023-08-08T02:03:52;22.20;58.60
62589;DHT22;58504;48.770;9.148;2023-08-08T02:06:18;22.20;58.60
62589;DHT22;58504;48.770;9.148;2023-08-08T02:08:45;22.20;58.60
62589;DHT22;58504;48.770;9.148;2023-08-08T02:11:12;22.20;58.60
62589;DHT22;58504;48.770;9.148;2023-08-08T02:13:39;22.20;58.60
62589;DHT22;58504;48.770;9.148;2023-08-08T02:16:07;22.20;58.60
62589;DHT22;58504;48.770;9.148;2023-08-08T02:18:34;22.10;58.60
62589;DHT22;58504;48.770;9.148;2023-08-08T02:21:01;22.10;58.60
62589;DHT22;58504;48.770;9.148;2023-08-08T02:23:28;22.10;58.60
62589;DHT22;58504;48.770;9.148;2023-08-08T02:25:55;22.10;58.60
62589;DHT22;58504;48.770;9.148;2023-08-08T02:28:21;22.10;58.60
62589;DHT22;58504;48.770;9.148;2023-08-08T02:30:48;22.10;58.70
62589;DHT22;58504;48.770;9.148;2023-08-08T02:33:16;22.10;58.60
62589;DHT22;58504;48.770;9.148;2023-08-08T02:35:43;22.10;58.70
62589;DHT22;58504;48.770;9.148;2023-08-08T02:38:10;22.10;58.70
62589;DHT22;58504;48.770;9.148;2023-08-08T02:40:36;22.10;58.70
62589;DHT22;58504;48.770;9.148;2023-08-08T02:43:04;22.10;58.70
62589;DHT22;58504;48.770;9.148;2023-08-08T02:45:31;22.10;58.70
62589;DHT22;58504;48.770;9.148;2023-08-08T02:47:58;22.10;58.70
62589;DHT22;58504;48.770;9.148;2023-08-08T02:50:26;22.10;58.80
62589;DHT22;58504;48.770;9.148;2023-08-08T02:52:53;22.10;58.70
62589;DHT22;58504;48.770;9.148;2023-08-08T02:55:20;22.10;58.70
62589;DHT22;58504;48.770;9.148;2023-08-08T02:57:46;22.10;58.80
62589;DHT22;58504;48.770;9.148;2023-08-08T03:00:13;22.10;58.80
62589;DHT22;58504;48.770;9.148;2023-08-08T03:02:40;22.10;58.80
62589;DHT22;58504;48.770;9.148;2023-08-08T03:05:07;22.10;58.80
62589;DHT22;58504;48.770;9.148;2023-08-08T03:07:36;22.10;58.80
62589;DHT22;58504;48.770;9.148;2023-08-08T03:10:03;22.00;58.70
62589;DHT22;58504;48.770;9.148;2023-08-08T03:12:30;22.10;58.80
62589;DHT22;58504;48.770;9.148;2023-08-08T03:14:57;22.00;58.70
62589;DHT22;58504;48.770;9.148;2023-08-08T03:17:23;22.00;58.70
62589;DHT22;58504;48.770;9.148;2023-08-08T03:19:50;22.00;58.70
62589;DHT22;58504;48.770;9.148;2023-08-08T03:22:17;22.00;58.70
62589;DHT22;58504;48.770;9.148;2023-08-08T03:24:45;22.00;58.70
62589;DHT22;58504;48.770;9.148;2023-08-08T03:27:12;22.00;58.70
62589;DHT22;58504;48.770;9.148;2023-08-08T03:29:38;22.00;58.80
62589;DHT22;58504;48.770;9.148;2023-08-08T03:32:06;22.00;58.80
62589;DHT22;58504;48.770;9.148;2023-08-08T03:34:32;22.00;58.80
62589;DHT22;58504;48.770;9.148;2023-08-08T03:36:59;22.00;58.80
62589;DHT22;58504;48.770;9.148;2023-08-08T03:39:26;22.00;58.80
62589;DHT22;58504;48.770;9.148;2023-08-08T03:41:54;22.00;58.80
62589;DHT22;58504;48.770;9.148;2023-08-08T03:44:21;22.00;58.90
62589;DHT22;58504;48.770;9.148;2023-08-08T03:46:48;22.00;58.80
62589;DHT22;58504;48.770;9.148;2023-08-08T03:49:16;22.00;58.80
62589;DHT22;58504;48.770;9.148;2023-08-08T03:51:43;22.00;58.90
62589;DHT22;58504;48.770;9.148;2023-08-08T03:54:10;22.00;58.90
62589;DHT22;58504;48.770;9.148;2023-08-08T03:56:36;22.00;58.90
62589;DHT22;58504;48.770;9.148;2023-08-08T03:59:04;21.90;58.80
62589;DHT22;58504;48.770;9.148;2023-08-08T04:01:31;22.00;58.90
62589;DHT22;58504;48.770;9.148;2023-08-08T04:03:58;21.90;58.80
62589;DHT22;58504;48.770;9.148;2023-08-08T04:06:25;21.90;58.80
62589;DHT22;58504;48.770;9.148;2023-08-08T04:08:52;21.90;58.80
62589;DHT22;58504;48.770;9.148;2023-08-08T04:11:18;21.90;58.80
62589;DHT22;58504;48.770;9.148;2023-08-08T04:13:45;21.90;58.90
62589;DHT22;58504;48.770;9.148;2023-08-08T04:16:14;22.00;58.90
62589;DHT22;58504;48.770;9.148;2023-08-08T04:18:40;21.90;58.80
62589;DHT22;58504;48.770;9.148;2023-08-08T04:21:07;21.90;58.80
62589;DHT22;58504;48.770;9.148;2023-08-08T04:23:34;21.90;58.90
62589;DHT22;58504;48.770;9.148;2023-08-08T04:26:01;21.90;58.90
62589;DHT22;58504;48.770;9.148;2023-08-08T04:28:27;21.90;58.80
62589;DHT22;58504;48.770;9.148;2023-08-08T04:30:54;21.90;58.80
62589;DHT22;58504;48.770;9.148;2023-08-08T04:33:22;21.90;58.90
62589;DHT22;58504;48.770;9.148;2023-08-08T04:35:49;21.90;58.90
62589;DHT22;58504;48.770;9.148;2023-08-08T04:38:17;21.90;58.90
62589;DHT22;58504;48.770;9.148;2023-08-08T04:40:44;21.90;58.80
62589;DHT22;58504;48.770;9.148;2023-08-08T04:43:11;21.90;58.80
62589;DHT22;58504;48.770;9.148;2023-08-08T04:45:37;22.00;58.90
62589;DHT22;58504;48.770;9.148;2023-08-08T04:48:05;21.90;58.80
62589;DHT22;58504;48.770;9.148;2023-08-08T04:50:33;21.90;58.80
62589;DHT22;58504;48.770;9.148;2023-08-08T04:53:00;21.90;58.80
62589;DHT22;58504;48.770;9.148;2023-08-08T04:55:26;22.00;58.80
62589;DHT22;58504;48.770;9.148;2023-08-08T04:57:53;22.00;58.80
62589;DHT22;58504;48.770;9.148;2023-08-08T05:00:20;22.00;58.70
62589;DHT22;58504;48.770;9.148;2023-08-08T05:02:46;22.00;58.70
62589;DHT22;58504;48.770;9.148;2023-08-08T05:05:13;22.00;58.60
62589;DHT22;58504;48.770;9.148;2023-08-08T05:07:41;22.00;58.60
62589;DHT22;58504;48.770;9.148;2023-08-08T05:10:08;22.00;58.50
62589;DHT22;58504;48.770;9.148;2023-08-08T05:12:35;22.00;58.50
62589;DHT22;58504;48.770;9.148;2023-08-08T05:15:03;22.10;58.50
62589;DHT22;58504;48.770;9.148;2023-08-08T05:17:30;22.10;58.50
62589;DHT22;58504;48.770;9.148;2023-08-08T05:19:57;22.10;58.40
62589;DHT22;58504;48.770;9.148;2023-08-08T05:22:24;22.10;58.40
62589;DHT22;58504;48.770;9.148;2023-08-08T05:24:53;22.10;58.30
62589;DHT22;58504;48.770;9.148;2023-08-08T05:27:19;22.10;58.30
62589;DHT22;58504;48.770;9.148;2023-08-08T05:29:46;22.10;58.20
62589;DHT22;58504;48.770;9.148;2023-08-08T05:32:13;22.20;58.20
62589;DHT22;58504;48.770;9.148;2023-08-08T05:34:40;22.20;58.10
62589;DHT22;58504;48.770;9.148;2023-08-08T05:37:06;22.20;58.00
62589;DHT22;58504;48.770;9.148;2023-08-08T05:39:33;22.20;57.80
62589;DHT22;58504;48.770;9.148;2023-08-08T05:42:02;22.20;57.80
62589;DHT22;58504;48.770;9.148;2023-08-08T05:44:29;22.30;57.90
62589;DHT22;58504;48.770;9.148;2023-08-08T05:46:55;22.30;57.70
62589;DHT22;58504;48.770;9.148;2023-08-08T05:49:22;22.30;57.50
62589;DHT22;58504;48.770;9.148;2023-08-08T05:51:49;22.40;57.30
62589;DHT22;58504;48.770;9.148;2023-08-08T05:54:16;22.40;57.20
62589;DHT22;58504;48.770;9.148;2023-08-08T05:56:42;22.40;57.10
62589;DHT22;58504;48.770;9.148;2023-08-08T05:59:10;22.40;57.00
62589;DHT22;58504;48.770;9.148;2023-08-08T06:01:37;22.50;56.90
62589;DHT22;58504;48.770;9.148;2023-08-08T06:04:04;22.50;56.70
62589;DHT22;58504;48.770;9.148;2023-08-08T06:06:31;22.60;56.70
62589;DHT22;58504;48.770;9.148;2023-08-08T06:08:58;22.60;56.50
62589;DHT22;58504;48.770;9.148;2023-08-08T06:11:24;22.60;56.10
62589;DHT22;58504;48.770;9.148;2023-08-08T06:13:51;22.70;56.00
62589;DHT22;58504;48.770;9.148;2023-08-08T06:16:21;22.70;56.00
62589;DHT22;58504;48.770;9.148;2023-08-08T06:18:48;22.80;55.60
62589;DHT22;58504;48.770;9.148;2023-08-08T06:21:14;22.80;55.50
62589;DHT22;58504;48.770;9.148;2023-08-08T06:23:42;22.80;55.70
62589;DHT22;58504;48.770;9.148;2023-08-08T06:26:08;22.90;55.60
62589;DHT22;58504;48.770;9.148;2023-08-08T06:28:36;22.90;55.60
62589;DHT22;58504;48.770;9.148;2023-08-08T06:31:03;23.00;55.00
62589;DHT22;58504;48.770;9.148;2023-08-08T06:33:31;23.00;55.00
62589;DHT22;58504;48.770;9.148;2023-08-08T06:35:58;23.10;55.10
62589;DHT22;58504;48.770;9.148;2023-08-08T06:38:24;23.10;55.10
62589;DHT22;58504;48.770;9.148;2023-08-08T06:40:51;23.20;55.30
62589;DHT22;58504;48.770;9.148;2023-08-08T06:43:18;23.20;55.10
62589;DHT22;58504;48.770;9.148;2023-08-08T06:45:45;23.20;55.10
62589;DHT22;58504;48.770;9.148;2023-08-08T06:48:13;23.20;55.10
62589;DHT22;58504;48.770;9.148;2023-08-08T06:50:41;23.20;55.10
62589;DHT22;58504;48.770;9.148;2023-08-08T06:53:07;23.30;55.00
62589;DHT22;58504;48.770;9.148;2023-08-08T06:55:34;23.30;55.00
62589;DHT22;58504;48.770;9.148;2023-08-08T06:58:01;23.40;55.00
62589;DHT22;58504;48.770;9.148;2023-08-08T07:00:28;23.40;55.00
62589;DHT22;58504;48.770;9.148;2023-08-08T07:02:55;23.40;54.90
62589;DHT22;58504;48.770;9.148;2023-08-08T07:05:22;23.50;55.00
62589;DHT22;58504;48.770;9.148;2023-08-08T07:07:51;23.60;54.80
62589;DHT22;58504;48.770;9.148;2023-08-08T07:10:18;23.60;54.60
62589;DHT22;58504;48.770;9.148;2023-08-08T07:12:45;23.70;54.40
62589;DHT22;58504;48.770;9.148;2023-08-08T07:15:12;23.80;54.30
62589;DHT22;58504;48.770;9.148;2023-08-08T07:17:39;23.90;54.00
62589;DHT22;58504;48.770;9.148;2023-08-08T07:20:07;24.20;53.70
62589;DHT22;58504;48.770;9.148;2023-08-08T07:22:34;24.60;52.90
62589;DHT22;58504;48.770;9.148;2023-08-08T07:25:02;25.30;51.40
62589;DHT22;58504;48.770;9.148;2023-08-08T07:27:30;26.50;49.30
62589;DHT22;58504;48.770;9.148;2023-08-08T07:29:57;27.40;47.40
62589;DHT22;58504;48.770;9.148;2023-08-08T07:32:24;28.30;45.70
62589;DHT22;58504;48.770;9.148;2023-08-08T07:34:51;29.00;44.50
62589;DHT22;58504;48.770;9.148;2023-08-08T07:37:18;30.00;43.00
62589;DHT22;58504;48.770;9.148;2023-08-08T07:39:44;31.30;40.90
62589;DHT22;58504;48.770;9.148;2023-08-08T07:42:13;32.00;39.80
62589;DHT22;58504;48.770;9.148;2023-08-08T07:44:39;33.10;37.90
62589;DHT22;58504;48.770;9.148;2023-08-08T07:47:06;33.70;36.70
62589;DHT22;58504;48.770;9.148;2023-08-08T07:49:33;34.00;36.00
62589;DHT22;58504;48.770;9.148;2023-08-08T07:52:00;34.20;35.60
62589;DHT22;58504;48.770;9.148;2023-08-08T07:54:26;33.50;35.70
62589;DHT22;58504;48.770;9.148;2023-08-08T07:56:53;32.30;37.20
62589;DHT22;58504;48.770;9.148;2023-08-08T07:59:22;31.10;39.10
62589;DHT22;58504;48.770;9.148;2023-08-08T08:01:49;30.10;40.80
62589;DHT22;58504;48.770;9.148;2023-08-08T08:04:16;29.00;42.50
62589;DHT22;58504;48.770;9.148;2023-08-08T08:06:42;28.10;44.20
62589;DHT22;58504;48.770;9.148;2023-08-08T08:09:09;27.50;45.70
62589;DHT22;58504;48.770;9.148;2023-08-08T08:11:36;27.00;46.70
62589;DHT22;58504;48.770;9.148;2023-08-08T08:14:03;26.70;47.50
62589;DHT22;58504;48.770;9.148;2023-08-08T08:16:31;26.50;48.20
62589;DHT22;58504;48.770;9.148;2023-08-08T08:18:58;26.20;48.60
62589;DHT22;58504;48.770;9.148;2023-08-08T08:21:24;26.00;49.00
62589;DHT22;58504;48.770;9.148;2023-08-08T08:23:51;25.80;49.30
62589;DHT22;58504;48.770;9.148;2023-08-08T08:26:18;25.60;49.60
62589;DHT22;58504;48.770;9.148;2023-08-08T08:28:45;25.50;50.00
62589;DHT22;58504;48.770;9.148;2023-08-08T08:31:11;25.30;50.50
62589;DHT22;58504;48.770;9.148;2023-08-08T08:33:40;25.10;51.00
62589;DHT22;58504;48.770;9.148;2023-08-08T08:36:06;25.00;51.20
62589;DHT22;58504;48.770;9.148;2023-08-08T08:38:33;24.80;51.50
62589;DHT22;58504;48.770;9.148;2023-08-08T08:41:01;24.70;51.60
62589;DHT22;58504;48.770;9.148;2023-08-08T08:43:28;24.90;51.80
62589;DHT22;58504;48.770;9.148;2023-08-08T08:46:00;25.20;51.40
62589;DHT22;58504;48.770;9.148;2023-08-08T08:48:27;25.60;50.70
62589;DHT22;58504;48.770;9.148;2023-08-08T08:50:55;25.50;50.70
62589;DHT22;58504;48.770;9.148;2023-08-08T08:53:23;25.60;50.50
62589;DHT22;58504;48.770;9.148;2023-08-08T08:55:50;25.60;50.10
62589;DHT22;58504;48.770;9.148;2023-08-08T08:58:18;25.60;50.00
62589;DHT22;58504;48.770;9.148;2023-08-08T09:00:46;25.80;50.00
62589;DHT22;58504;48.770;9.148;2023-08-08T09:03:14;26.00;49.80
62589;DHT22;58504;48.770;9.148;2023-08-08T09:05:42;26.10;49.40
62589;DHT22;58504;48.770;9.148;2023-08-08T09:08:11;26.10;48.90
62589;DHT22;58504;48.770;9.148;2023-08-08T09:10:39;26.00;49.00
62589;DHT22;58504;48.770;9.148;2023-08-08T09:13:06;25.70;49.40
62589;DHT22;58504;48.770;9.148;2023-08-08T09:15:33;25.80;49.60
62589;DHT22;58504;48.770;9.148;2023-08-08T09:18:01;25.90;49.20
62589;DHT22;58504;48.770;9.148;2023-08-08T09:20:28;26.00;48.90
62589;DHT22;58504;48.770;9.148;2023-08-08T09:22:55;26.00;48.70
62589;DHT22;58504;48.770;9.148;2023-08-08T09:25:23;25.90;49.00
62589;DHT22;58504;48.770;9.148;2023-08-08T09:27:51;25.70;49.40
62589;DHT22;58504;48.770;9.148;2023-08-08T09:30:18;25.60;49.80
62589;DHT22;58504;48.770;9.148;2023-08-08T09:32:46;25.60;50.00
62589;DHT22;58504;48.770;9.148;2023-08-08T09:35:12;25.60;50.10
62589;DHT22;58504;48.770;9.148;2023-08-08T09:37:39;25.60;50.20
62589;DHT22;58504;48.770;9.148;2023-08-08T09:40:07;25.70;50.00
62589;DHT22;58504;48.770;9.148;2023-08-08T09:42:37;25.70;50.00
62589;DHT22;58504;48.770;9.148;2023-08-08T09:45:08;25.80;49.70
62589;DHT22;58504;48.770;9.148;2023-08-08T09:47:37;25.70;49.80
62589;DHT22;58504;48.770;9.148;2023-08-08T09:50:04;25.50;50.20
62589;DHT22;58504;48.770;9.148;2023-08-08T09:52:33;25.40;50.50
62589;DHT22;58504;48.770;9.148;2023-08-08T09:55:01;25.30;50.70
62589;DHT22;58504;48.770;9.148;2023-08-08T09:57:29;25.70;50.60
62589;DHT22;58504;48.770;9.148;2023-08-08T09:59:57;25.80;49.70
62589;DHT22;58504;48.770;9.148;2023-08-08T10:02:25;25.80;49.90
62589;DHT22;58504;48.770;9.148;2023-08-08T10:04:52;25.70;49.80
62589;DHT22;58504;48.770;9.148;2023-08-08T10:07:19;25.70;50.00
62589;DHT22;58504;48.770;9.148;2023-08-08T10:09:46;25.80;49.80
62589;DHT22;58504;48.770;9.148;2023-08-08T10:12:13;25.80;50.00
62589;DHT22;58504;48.770;9.148;2023-08-08T10:14:42;25.70;49.90
62589;DHT22;58504;48.770;9.148;2023-08-08T10:17:13;25.60;50.00
62589;DHT22;58504;48.770;9.148;2023-08-08T10:19:49;25.60;50.20
62589;DHT22;58504;48.770;9.148;2023-08-08T10:22:20;25.60;50.30
62589;DHT22;58504;48.770;9.148;2023-08-08T10:24:47;25.60;50.20
62589;DHT22;58504;48.770;9.148;2023-08-08T10:27:14;25.70;50.20
62589;DHT22;58504;48.770;9.148;2023-08-08T10:29:41;25.70;50.20
62589;DHT22;58504;48.770;9.148;2023-08-08T10:32:23;25.60;50.00
62589;DHT22;58504;48.770;9.148;2023-08-08T10:34:55;25.60;50.20
62589;DHT22;58504;48.770;9.148;2023-08-08T10:37:22;25.60;50.40
62589;DHT22;58504;48.770;9.148;2023-08-08T10:39:53;25.60;50.30
62589;DHT22;58504;48.770;9.148;2023-08-08T10:42:20;25.50;50.40
62589;DHT22;58504;48.770;9.148;2023-08-08T10:44:51;25.30;50.70
62589;DHT22;58504;48.770;9.148;2023-08-08T10:47:22;25.30;51.60
62589;DHT22;58504;48.770;9.148;2023-08-08T10:49:57;25.20;51.10
62589;DHT22;58504;48.770;9.148;2023-08-08T10:52:24;25.20;51.10
62589;DHT22;58504;48.770;9.148;2023-08-08T10:54:52;25.10;51.30
62589;DHT22;58504;48.770;9.148;2023-08-08T10:57:23;25.10;51.50
62589;DHT22;58504;48.770;9.148;2023-08-08T10:59:51;25.00;51.50
62589;DHT22;58504;48.770;9.148;2023-08-08T11:02:19;25.00;51.60
62589;DHT22;58504;48.770;9.148;2023-08-08T11:04:48;24.90;51.50
62589;DHT22;58504;48.770;9.148;2023-08-08T11:07:14;24.90;51.70
62589;DHT22;58504;48.770;9.148;2023-08-08T11:09:42;24.80;51.80
62589;DHT22;58504;48.770;9.148;2023-08-08T11:12:13;24.80;51.80
62589;DHT22;58504;48.770;9.148;2023-08-08T11:14:41;24.80;51.90
62589;DHT22;58504;48.770;9.148;2023-08-08T11:17:08;24.70;51.90
62589;DHT22;58504;48.770;9.148;2023-08-08T11:19:39;24.60;52.00
62589;DHT22;58504;48.770;9.148;2023-08-08T11:22:10;24.60;52.10
62589;DHT22;58504;48.770;9.148;2023-08-08T11:24:38;24.60;52.10
62589;DHT22;58504;48.770;9.148;2023-08-08T11:27:04;24.50;52.20
62589;DHT22;58504;48.770;9.148;2023-08-08T11:29:31;24.50;52.40
62589;DHT22;58504;48.770;9.148;2023-08-08T11:32:00;24.60;52.50
62589;DHT22;58504;48.770;9.148;2023-08-08T11:34:30;24.50;52.50
62589;DHT22;58504;48.770;9.148;2023-08-08T11:36:58;24.50;52.70
62589;DHT22;58504;48.770;9.148;2023-08-08T11:39:26;24.40;52.70
62589;DHT22;58504;48.770;9.148;2023-08-08T11:41:54;24.40;52.80
62589;DHT22;58504;48.770;9.148;2023-08-08T11:44:21;24.40;52.80
62589;DHT22;58504;48.770;9.148;2023-08-08T11:46:48;24.30;52.80
62589;DHT22;58504;48.770;9.148;2023-08-08T11:49:15;24.30;52.90
62589;DHT22;58504;48.770;9.148;2023-08-08T11:51:43;24.30;53.10
62589;DHT22;58504;48.770;9.148;2023-08-08T11:54:11;24.20;53.10
62589;DHT22;58504;48.770;9.148;2023-08-08T11:56:39;24.20;53.10
62589;DHT22;58504;48.770;9.148;2023-08-08T11:59:06;24.20;53.10
62589;DHT22;58504;48.770;9.148;2023-08-08T12:01:33;24.20;53.20
62589;DHT22;58504;48.770;9.148;2023-08-08T12:04:05;24.20;53.20
62589;DHT22;58504;48.770;9.148;2023-08-08T12:06:32;24.20;53.20
62589;DHT22;58504;48.770;9.148;2023-08-08T12:09:02;24.20;53.30
62589;DHT22;58504;48.770;9.148;2023-08-08T12:11:29;24.10;53.40
62589;DHT22;58504;48.770;9.148;2023-08-08T12:14:00;24.10;53.50
62589;DHT22;58504;48.770;9.148;2023-08-08T12:16:28;24.10;53.40
62589;DHT22;58504;48.770;9.148;2023-08-08T12:18:56;24.10;53.30
62589;DHT22;58504;48.770;9.148;2023-08-08T12:21:23;24.10;53.50
62589;DHT22;58504;48.770;9.148;2023-08-08T12:23:50;24.10;53.40
62589;DHT22;58504;48.770;9.148;2023-08-08T12:26:17;24.20;53.20
62589;DHT22;58504;48.770;9.148;2023-08-08T12:28:44;24.20;53.20
62589;DHT22;58504;48.770;9.148;2023-08-08T12:31:12;24.20;53.40
62589;DHT22;58504;48.770;9.148;2023-08-08T12:33:39;24.20;53.40
62589;DHT22;58504;48.770;9.148;2023-08-08T12:36:06;24.20;53.30
62589;DHT22;58504;48.770;9.148;2023-08-08T12:38:33;24.20;53.30
62589;DHT22;58504;48.770;9.148;2023-08-08T12:41:01;24.20;53.30
62589;DHT22;58504;48.770;9.148;2023-08-08T12:43:28;24.20;53.30
62589;DHT22;58504;48.770;9.148;2023-08-08T12:45:55;24.30;53.40
62589;DHT22;58504;48.770;9.148;2023-08-08T12:48:23;24.20;53.20
62589;DHT22;58504;48.770;9.148;2023-08-08T12:50:49;24.20;53.20
62589;DHT22;58504;48.770;9.148;2023-08-08T12:53:16;24.20;53.10
62589;DHT22;58504;48.770;9.148;2023-08-08T12:55:43;24.30;53.10
62589;DHT22;58504;48.770;9.148;2023-08-08T12:58:09;24.20;53.00
62589;DHT22;58504;48.770;9.148;2023-08-08T13:00:36;24.30;52.80
62589;DHT22;58504;48.770;9.148;2023-08-08T13:03:04;24.30;53.00
62589;DHT22;58504;48.770;9.148;2023-08-08T13:05:32;24.30;53.10
62589;DHT22;58504;48.770;9.148;2023-08-08T13:07:59;24.30;52.90
62589;DHT22;58504;48.770;9.148;2023-08-08T13:10:26;24.30;52.90
62589;DHT22;58504;48.770;9.148;2023-08-08T13:12:52;24.30;53.00
62589;DHT22;58504;48.770;9.148;2023-08-08T13:15:20;24.30;52.90
62589;DHT22;58504;48.770;9.148;2023-08-08T13:17:47;24.20;52.90
62589;DHT22;58504;48.770;9.148;2023-08-08T13:20:14;24.20;53.10
62589;DHT22;58504;48.770;9.148;2023-08-08T13:22:42;24.10;53.20
62589;DHT22;58504;48.770;9.148;2023-08-08T13:25:09;24.00;53.90
62589;DHT22;58504;48.770;9.148;2023-08-08T13:27:36;24.00;53.20
62589;DHT22;58504;48.770;9.148;2023-08-08T13:30:03;24.00;53.60
62589;DHT22;58504;48.770;9.148;2023-08-08T13:32:30;24.20;52.80
62589;DHT22;58504;48.770;9.148;2023-08-08T13:34:57;24.50;52.50
62589;DHT22;58504;48.770;9.148;2023-08-08T13:37:24;24.90;51.90
62589;DHT22;58504;48.770;9.148;2023-08-08T13:39:52;25.60;50.90
62589;DHT22;58504;48.770;9.148;2023-08-08T13:42:19;25.80;50.20
62589;DHT22;58504;48.770;9.148;2023-08-08T13:44:46;25.90;49.30
62589;DHT22;58504;48.770;9.148;2023-08-08T13:47:13;25.70;49.40
62589;DHT22;58504;48.770;9.148;2023-08-08T13:49:39;25.70;49.70
62589;DHT22;58504;48.770;9.148;2023-08-08T13:52:06;25.60;49.90
62589;DHT22;58504;48.770;9.148;2023-08-08T13:54:33;25.60;50.20
62589;DHT22;58504;48.770;9.148;2023-08-08T13:57:01;25.50;50.30
62589;DHT22;58504;48.770;9.148;2023-08-08T13:59:28;25.40;50.40
62589;DHT22;58504;48.770;9.148;2023-08-08T14:01:55;25.30;50.60
62589;DHT22;58504;48.770;9.148;2023-08-08T14:04:21;25.30;50.70
62589;DHT22;58504;48.770;9.148;2023-08-08T14:06:49;25.20;50.90
62589;DHT22;58504;48.770;9.148;2023-08-08T14:09:15;25.10;50.90
62589;DHT22;58504;48.770;9.148;2023-08-08T14:11:42;25.10;51.00
62589;DHT22;58504;48.770;9.148;2023-08-08T14:14:10;25.00;51.10
62589;DHT22;58504;48.770;9.148;2023-08-08T14:16:37;24.90;51.20
62589;DHT22;58504;48.770;9.148;2023-08-08T14:19:04;24.80;51.30
62589;DHT22;58504;48.770;9.148;2023-08-08T14:21:31;24.70;51.60
62589;DHT22;58504;48.770;9.148;2023-08-08T14:23:57;24.60;51.80
62589;DHT22;58504;48.770;9.148;2023-08-08T14:26:24;24.50;52.00
62589;DHT22;58504;48.770;9.148;2023-08-08T14:28:51;24.40;52.00
62589;DHT22;58504;48.770;9.148;2023-08-08T14:31:19;24.30;52.00
62589;DHT22;58504;48.770;9.148;2023-08-08T14:33:46;24.20;52.10
62589;DHT22;58504;48.770;9.148;2023-08-08T14:36:13;24.20;52.60
62589;DHT22;58504;48.770;9.148;2023-08-08T14:38:40;24.00;53.40
62589;DHT22;58504;48.770;9.148;2023-08-08T14:41:07;24.00;53.10
62589;DHT22;58504;48.770;9.148;2023-08-08T14:43:34;23.80;53.20
62589;DHT22;58504;48.770;9.148;2023-08-08T14:46:00;23.80;53.40
62589;DHT22;58504;48.770;9.148;2023-08-08T14:48:28;23.80;53.60
62589;DHT22;58504;48.770;9.148;2023-08-08T14:50:55;23.80;53.70
62589;DHT22;58504;48.770;9.148;2023-08-08T14:53:22;23.70;53.70
62589;DHT22;58504;48.770;9.148;2023-08-08T14:55:49;23.70;53.80
62589;DHT22;58504;48.770;9.148;2023-08-08T14:58:16;23.70;53.90
62589;DHT22;58504;48.770;9.148;2023-08-08T15:00:43;23.60;54.00
62589;DHT22;58504;48.770;9.148;2023-08-08T15:03:10;23.60;54.00
62589;DHT22;58504;48.770;9.148;2023-08-08T15:05:40;23.60;54.10
62589;DHT22;58504;48.770;9.148;2023-08-08T15:08:08;23.60;54.30
62589;DHT22;58504;48.770;9.148;2023-08-08T15:10:36;23.50;54.30
62589;DHT22;58504;48.770;9.148;2023-08-08T15:13:02;23.50;54.40
62589;DHT22;58504;48.770;9.148;2023-08-08T15:15:29;23.40;54.40
62589;DHT22;58504;48.770;9.148;2023-08-08T15:17:56;23.40;54.50
62589;DHT22;58504;48.770;9.148;2023-08-08T15:20:23;23.40;54.70
62589;DHT22;58504;48.770;9.148;2023-08-08T15:22:51;23.30;54.60
62589;DHT22;58504;48.770;9.148;2023-08-08T15:25:17;23.30;54.60
62589;DHT22;58504;48.770;9.148;2023-08-08T15:27:44;23.30;54.60
62589;DHT22;58504;48.770;9.148;2023-08-08T15:30:11;23.40;54.70